createdAt,value
2022-12-20T00:01:21.339Z,1.15
2022-12-20T00:03:50.941Z,1.45
2022-12-20T00:06:17.487Z,1.60
2022-12-20T00:08:43.923Z,2.78
2022-12-20T00:11:11.011Z,2.08
2022-12-20T00:13:38.179Z,1.33
2022-12-20T00:16:08.759Z,2.55
2022-12-20T00:18:36.088Z,3.17
2022-12-20T00:21:04.298Z,1.85
2022-12-20T00:23:30.854Z,2.78
2022-12-20T00:26:05.610Z,2.45
2022-12-20T00:28:33.901Z,1.85
2022-12-20T00:31:00.827Z,2.67
2022-12-20T00:33:27.720Z,2.58
2022-12-20T00:35:58.266Z,2.20
2022-12-20T00:38:26.075Z,1.27
2022-12-20T00:41:03.084Z,2.80
2022-12-20T00:43:30.160Z,1.35
2022-12-20T00:45:57.103Z,2.60
2022-12-20T00:48:24.034Z,1.83
2022-12-20T00:50:50.907Z,1.45
2022-12-20T00:53:22.638Z,2.15
2022-12-20T00:55:52.656Z,0.55
2022-12-20T00:58:19.145Z,1.48
2022-12-20T01:00:49.139Z,1.83
2022-12-20T01:03:21.119Z,1.27
2022-12-20T01:05:53.153Z,1.65
2022-12-20T01:08:20.979Z,2.60
2022-12-20T01:10:47.799Z,1.20
2022-12-20T01:13:14.313Z,2.47
2022-12-20T01:15:40.838Z,1.63
2022-12-20T01:18:07.315Z,1.20
2022-12-20T01:20:33.771Z,1.80
2022-12-20T01:23:00.242Z,1.73
2022-12-20T01:25:26.688Z,2.17
2022-12-20T01:27:53.155Z,0.70
2022-12-20T01:30:19.606Z,0.60
2022-12-20T01:32:46.064Z,1.83
2022-12-20T01:35:12.521Z,1.40
2022-12-20T01:37:39.045Z,1.27
2022-12-20T01:40:06.321Z,1.17
2022-12-20T01:42:32.776Z,1.90
2022-12-20T01:45:00.042Z,1.20
2022-12-20T01:47:29.987Z,0.90
2022-12-20T01:49:59.967Z,2.28
2022-12-20T01:52:35.939Z,2.33
2022-12-20T01:55:08.447Z,2.50
2022-12-20T01:57:38.299Z,1.50
2022-12-20T02:00:06.163Z,2.33
2022-12-20T02:02:33.690Z,3.10
2022-12-20T02:05:00.316Z,1.63
2022-12-20T02:07:31.114Z,2.50
2022-12-20T02:09:58.771Z,2.40
2022-12-20T02:12:30.262Z,3.35
2022-12-20T02:15:06.181Z,2.80
2022-12-20T02:17:50.890Z,2.95
2022-12-20T02:20:20.326Z,2.45
2022-12-20T02:23:13.513Z,1.50
2022-12-20T02:25:58.057Z,1.35
2022-12-20T02:28:48.986Z,1.35
2022-12-20T02:31:22.457Z,3.20
2022-12-20T02:33:51.155Z,1.38
2022-12-20T02:36:18.263Z,1.25
2022-12-20T02:38:45.232Z,2.50
2022-12-20T02:41:27.161Z,2.67
2022-12-20T02:44:17.972Z,2.72
2022-12-20T02:46:45.635Z,1.58
2022-12-20T02:49:16.428Z,2.42
2022-12-20T02:51:45.861Z,2.67
2022-12-20T02:54:13.244Z,2.60
2022-12-20T02:56:50.256Z,1.77
2022-12-20T02:59:32.410Z,2.72
2022-12-20T03:01:59.512Z,1.88
2022-12-20T03:04:34.285Z,2.40
2022-12-20T03:07:12.416Z,2.42
2022-12-20T03:09:41.657Z,1.55
2022-12-20T03:12:09.668Z,1.42
2022-12-20T03:14:36.108Z,3.00
2022-12-20T03:17:02.646Z,1.60
2022-12-20T03:19:29.581Z,1.90
2022-12-20T03:21:56.116Z,1.67
2022-12-20T03:24:22.553Z,2.00
2022-12-20T03:26:48.985Z,2.08
2022-12-20T03:29:15.440Z,1.38
2022-12-20T03:31:42.017Z,2.22
2022-12-20T03:34:08.530Z,1.75
2022-12-20T03:36:34.986Z,3.40
2022-12-20T03:39:01.543Z,2.20
2022-12-20T03:41:28.046Z,3.17
2022-12-20T03:43:54.589Z,1.52
2022-12-20T03:46:21.163Z,2.63
2022-12-20T03:48:47.646Z,2.45
2022-12-20T03:51:14.139Z,3.45
2022-12-20T03:53:40.582Z,3.17
2022-12-20T03:56:07.160Z,3.28
2022-12-20T03:58:33.622Z,2.55
2022-12-20T04:01:00.143Z,3.92
2022-12-20T04:03:26.689Z,2.22
2022-12-20T04:05:53.215Z,3.60
2022-12-20T04:08:19.758Z,3.42
2022-12-20T04:11:04.791Z,3.60
2022-12-20T04:13:31.231Z,2.33
2022-12-20T04:16:00.699Z,2.08
2022-12-20T04:18:27.778Z,3.70
2022-12-20T04:20:54.888Z,1.98
2022-12-20T04:23:21.453Z,3.42
2022-12-20T04:25:47.912Z,4.00
2022-12-20T04:28:14.348Z,2.05
2022-12-20T04:30:40.793Z,2.92
2022-12-20T04:33:07.211Z,2.28
2022-12-20T04:35:33.675Z,2.40
2022-12-20T04:38:00.143Z,2.47
2022-12-20T04:40:26.630Z,1.95
2022-12-20T04:42:53.099Z,2.58
2022-12-20T04:45:19.526Z,3.38
2022-12-20T04:47:45.986Z,2.65
2022-12-20T04:50:12.496Z,2.55
2022-12-20T04:52:57.244Z,2.80
2022-12-20T04:55:23.906Z,2.63
2022-12-20T04:57:50.363Z,4.07
2022-12-20T05:00:17.261Z,1.70
2022-12-20T05:02:43.964Z,3.13
2022-12-20T05:05:10.612Z,1.92
2022-12-20T05:07:37.345Z,3.70
2022-12-20T05:10:04.585Z,2.65
2022-12-20T05:12:31.064Z,2.75
2022-12-20T05:14:57.531Z,0.95
2022-12-20T05:17:24.002Z,3.10
2022-12-20T05:19:52.511Z,4.00
2022-12-20T05:22:37.937Z,2.45
2022-12-20T05:25:23.232Z,1.83
2022-12-20T05:27:49.795Z,4.22
2022-12-20T05:30:16.392Z,3.42
2022-12-20T05:32:42.840Z,3.67
2022-12-20T05:35:09.732Z,2.15
2022-12-20T05:37:36.355Z,2.97
2022-12-20T05:40:04.546Z,3.83
2022-12-20T05:42:30.979Z,1.67
2022-12-20T05:44:57.487Z,1.95
2022-12-20T05:47:24.847Z,4.07
2022-12-20T05:49:51.373Z,5.38
2022-12-20T05:52:17.823Z,4.20
2022-12-20T05:54:44.439Z,2.70
2022-12-20T05:57:10.959Z,3.85
2022-12-20T05:59:37.485Z,4.18
2022-12-20T06:02:04.024Z,2.72
2022-12-20T06:04:32.816Z,3.38
2022-12-20T06:07:02.059Z,4.05
2022-12-20T06:09:28.558Z,3.95
2022-12-20T06:11:55.127Z,3.95
2022-12-20T06:14:21.725Z,3.63
2022-12-20T06:16:48.214Z,3.65
2022-12-20T06:19:20.857Z,4.82
2022-12-20T06:21:48.137Z,3.00
2022-12-20T06:24:14.632Z,4.60
2022-12-20T06:26:41.626Z,3.95
2022-12-20T06:29:10.150Z,3.95
2022-12-20T06:31:36.573Z,1.88
2022-12-20T06:34:03.282Z,3.00
2022-12-20T06:36:29.705Z,3.72
2022-12-20T06:38:56.160Z,3.97
2022-12-20T06:41:22.636Z,2.97
2022-12-20T06:43:49.298Z,4.40
2022-12-20T06:46:15.878Z,4.53
2022-12-20T06:48:42.364Z,3.70
2022-12-20T06:51:09.069Z,4.18
2022-12-20T06:53:35.540Z,0.95
2022-12-20T06:56:02.120Z,2.97
2022-12-20T06:58:28.659Z,1.55
2022-12-20T07:00:55.197Z,3.70
2022-12-20T07:03:22.236Z,4.25
2022-12-20T07:05:55.447Z,2.47
2022-12-20T07:08:22.956Z,2.83
2022-12-20T07:10:49.597Z,3.55
2022-12-20T07:13:16.338Z,4.00
2022-12-20T07:15:42.767Z,3.58
2022-12-20T07:18:10.210Z,3.22
2022-12-20T07:20:36.684Z,4.22
2022-12-20T07:23:03.559Z,2.67
2022-12-20T07:25:30.065Z,4.05
2022-12-20T07:27:56.536Z,2.83
2022-12-20T07:30:23.505Z,1.38
2022-12-20T07:32:50.067Z,2.47
2022-12-20T07:35:16.664Z,3.45
2022-12-20T07:37:43.134Z,2.63
2022-12-20T07:40:11.710Z,2.13
2022-12-20T07:42:42.919Z,3.38
2022-12-20T07:45:15.252Z,2.05
2022-12-20T07:47:41.700Z,2.70
2022-12-20T07:50:08.940Z,3.42
2022-12-20T07:52:36.342Z,3.47
2022-12-20T07:55:05.286Z,3.75
2022-12-20T07:57:38.060Z,3.45
2022-12-20T08:00:05.451Z,2.55
2022-12-20T08:02:37.136Z,1.95
2022-12-20T08:05:07.708Z,3.58
2022-12-20T08:07:34.640Z,3.35
2022-12-20T08:10:01.224Z,2.47
2022-12-20T08:12:30.152Z,1.58
2022-12-20T08:14:58.412Z,2.05
2022-12-20T08:17:25.233Z,3.63
2022-12-20T08:19:52.105Z,1.77
2022-12-20T08:22:19.303Z,1.90
2022-12-20T08:24:46.238Z,2.92
2022-12-20T08:27:12.902Z,2.80
2022-12-20T08:29:39.347Z,3.45
2022-12-20T08:32:06.120Z,2.22
2022-12-20T08:34:33.003Z,2.38
2022-12-20T08:36:59.620Z,1.58
2022-12-20T08:39:26.070Z,3.03
2022-12-20T08:41:52.650Z,2.78
2022-12-20T08:44:19.140Z,0.95
2022-12-20T08:46:45.723Z,1.30
2022-12-20T08:49:12.169Z,1.45
2022-12-20T08:51:38.691Z,2.38
2022-12-20T08:54:05.566Z,2.70
2022-12-20T08:56:32.078Z,2.13
2022-12-20T08:58:58.615Z,2.80
2022-12-20T09:01:27.037Z,3.33
2022-12-20T09:03:53.632Z,1.90
2022-12-20T09:06:22.715Z,0.77
2022-12-20T09:08:49.742Z,2.58
2022-12-20T09:11:21.929Z,1.52
2022-12-20T09:13:51.363Z,1.25
2022-12-20T09:16:19.967Z,2.83
2022-12-20T09:19:00.721Z,2.40
2022-12-20T09:21:31.041Z,2.08
2022-12-20T09:23:57.916Z,1.60
2022-12-20T09:26:24.947Z,1.92
2022-12-20T09:28:51.718Z,2.17
2022-12-20T09:31:21.198Z,2.50
2022-12-20T09:33:48.251Z,2.45
2022-12-20T09:36:17.571Z,1.95
2022-12-20T09:38:44.851Z,2.90
2022-12-20T09:41:26.286Z,2.53
2022-12-20T09:43:52.930Z,1.80
2022-12-20T09:46:19.851Z,2.47
2022-12-20T09:48:47.463Z,3.00
2022-12-20T09:51:54.431Z,2.55
2022-12-20T09:54:42.128Z,1.05
2022-12-20T09:57:29.955Z,2.40
2022-12-20T09:59:58.239Z,2.60
2022-12-20T10:05:20.862Z,2.10
2022-12-20T10:08:17.459Z,3.03
2022-12-20T10:11:22.249Z,2.70
2022-12-20T10:13:56.515Z,2.70
2022-12-20T10:16:42.402Z,2.83
2022-12-20T10:19:11.784Z,1.70
2022-12-20T10:22:04.419Z,2.67
2022-12-20T10:24:32.692Z,1.85
2022-12-20T10:27:16.737Z,2.53
2022-12-20T10:29:44.049Z,2.67
2022-12-20T10:32:13.885Z,1.20
2022-12-20T10:34:50.057Z,1.60
2022-12-20T10:37:16.539Z,1.83
2022-12-20T10:39:47.065Z,1.35
2022-12-20T10:42:39.046Z,1.90
2022-12-20T10:45:23.547Z,2.30
2022-12-20T10:47:51.705Z,1.92
2022-12-20T10:50:21.260Z,2.72
2022-12-20T10:53:11.954Z,2.45
2022-12-20T10:55:41.095Z,1.85
2022-12-20T10:58:22.519Z,2.47
2022-12-20T11:00:49.778Z,1.35
2022-12-20T11:03:23.288Z,2.28
2022-12-20T11:06:16.232Z,3.00
2022-12-20T11:08:51.208Z,0.98
2022-12-20T11:11:24.180Z,1.67
2022-12-20T11:13:52.185Z,2.00
2022-12-20T11:16:29.759Z,1.00
2022-12-20T11:19:08.660Z,2.08
2022-12-20T11:21:47.832Z,2.65
2022-12-20T11:24:42.924Z,2.80
2022-12-20T11:27:40.315Z,2.75
2022-12-20T11:30:17.273Z,2.15
2022-12-20T11:32:52.661Z,1.58
2022-12-20T11:38:19.568Z,2.55
2022-12-20T11:41:01.491Z,2.20
2022-12-20T11:44:23.990Z,1.92
2022-12-20T11:47:19.356Z,1.73
2022-12-20T11:50:16.604Z,1.73
2022-12-20T11:52:58.519Z,2.03
2022-12-20T11:55:27.352Z,1.27
2022-12-20T11:58:23.151Z,1.42
2022-12-20T12:01:09.781Z,2.17
2022-12-20T12:03:41.873Z,2.25
2022-12-20T12:06:27.540Z,3.30
2022-12-20T12:09:09.289Z,1.58
2022-12-20T12:12:05.845Z,3.25
2022-12-20T12:14:38.393Z,2.47
2022-12-20T12:17:32.335Z,2.72
2022-12-20T12:20:15.662Z,2.45
2022-12-20T12:22:44.754Z,3.05
2022-12-20T12:25:17.438Z,1.90
2022-12-20T12:27:44.142Z,2.22
2022-12-20T12:30:17.202Z,2.45
2022-12-20T12:33:00.248Z,2.38
2022-12-20T12:35:52.253Z,2.78
2022-12-20T12:38:46.244Z,3.53
2022-12-20T12:41:37.764Z,2.92
2022-12-20T12:44:27.360Z,2.95
2022-12-20T12:47:01.973Z,2.88
2022-12-20T12:49:31.656Z,1.77
2022-12-20T12:52:05.231Z,2.95
2022-12-20T12:54:40.784Z,2.00
2022-12-20T12:57:13.845Z,1.75
2022-12-20T12:59:45.434Z,3.40
2022-12-20T13:02:15.341Z,1.58
2022-12-20T13:04:59.662Z,2.58
2022-12-20T13:07:35.356Z,2.95
2022-12-20T13:10:18.247Z,2.63
2022-12-20T13:12:57.488Z,2.25
2022-12-20T13:15:23.900Z,2.35
2022-12-20T13:18:00.732Z,2.13
2022-12-20T13:20:29.997Z,2.08
2022-12-20T13:23:05.554Z,2.45
2022-12-20T13:25:32.280Z,1.73
2022-12-20T13:28:17.060Z,2.70
2022-12-20T13:30:45.409Z,1.77
2022-12-20T13:33:47.081Z,2.58
2022-12-20T13:36:16.613Z,1.75
2022-12-20T13:38:45.943Z,2.05
2022-12-20T13:41:35.056Z,2.72
2022-12-20T13:44:31.283Z,3.67
2022-12-20T13:47:03.508Z,1.73
2022-12-20T13:49:36.740Z,3.42
2022-12-20T13:52:12.230Z,2.60
2022-12-20T13:54:48.994Z,3.83
2022-12-20T13:57:21.771Z,3.97
2022-12-20T13:59:52.789Z,4.18
2022-12-20T14:02:24.825Z,2.78
2022-12-20T14:04:59.232Z,2.25
2022-12-20T14:07:28.554Z,3.25
2022-12-20T14:09:58.014Z,5.63
2022-12-20T14:12:28.733Z,3.97
2022-12-20T14:14:59.453Z,2.28
2022-12-20T14:17:33.402Z,5.45
2022-12-20T14:20:02.765Z,4.60
2022-12-20T14:22:29.714Z,2.38
2022-12-20T14:24:56.577Z,6.43
2022-12-20T14:27:23.312Z,5.22
2022-12-20T14:29:51.953Z,2.30
2022-12-20T14:32:22.768Z,5.57
2022-12-20T14:34:49.366Z,6.13
2022-12-20T14:37:32.465Z,4.78
2022-12-20T14:40:04.221Z,4.97
2022-12-20T14:42:37.040Z,3.80
2022-12-20T14:45:10.491Z,3.30
2022-12-20T14:47:38.904Z,3.53
2022-12-20T14:50:17.269Z,1.65
2022-12-20T14:52:45.716Z,5.28
2022-12-20T14:55:21.142Z,2.97
2022-12-20T14:57:51.808Z,3.38
2022-12-20T15:00:18.221Z,5.25
2022-12-20T15:02:51.184Z,3.78
2022-12-20T15:05:35.967Z,2.72
2022-12-20T15:08:18.651Z,5.38
2022-12-20T15:11:00.263Z,5.93
2022-12-20T15:13:46.930Z,6.10
2022-12-20T15:16:22.187Z,6.32
2022-12-20T15:21:40.477Z,5.63
2022-12-20T15:24:12.226Z,6.60
2022-12-20T15:26:39.005Z,5.97
2022-12-20T15:29:05.927Z,8.63
2022-12-20T15:31:36.765Z,6.63
2022-12-20T15:34:28.466Z,6.35
2022-12-20T15:36:55.023Z,5.97
2022-12-20T15:39:21.599Z,5.93
2022-12-20T15:41:50.009Z,7.50
2022-12-20T15:44:19.695Z,7.75
2022-12-20T15:46:46.806Z,7.78
2022-12-20T15:49:18.797Z,4.88
2022-12-20T15:51:47.149Z,3.63
2022-12-20T15:54:31.398Z,6.28
2022-12-20T15:57:02.900Z,6.88
2022-12-20T15:59:59.010Z,6.30
2022-12-20T16:02:26.715Z,6.45
2022-12-20T16:04:55.178Z,5.95
2022-12-20T16:07:22.335Z,8.07
2022-12-20T16:09:50.023Z,6.32
2022-12-20T16:12:21.326Z,8.32
2022-12-20T16:14:48.136Z,7.72
2022-12-20T16:17:15.868Z,6.45
2022-12-20T16:19:43.751Z,7.07
2022-12-20T16:22:20.140Z,7.00
2022-12-20T16:24:46.699Z,7.00
2022-12-20T16:27:13.401Z,2.63
2022-12-20T16:29:41.373Z,6.50
2022-12-20T16:32:16.277Z,6.13
2022-12-20T16:34:43.012Z,5.80
2022-12-20T16:37:11.364Z,6.15
2022-12-20T16:39:37.807Z,7.07
2022-12-20T16:42:12.330Z,6.22
2022-12-20T16:44:42.677Z,6.38
2022-12-20T17:34:58.611Z,2.17
2022-12-20T17:37:25.075Z,5.43
2022-12-20T17:39:51.600Z,3.97
2022-12-20T17:42:18.074Z,2.95
2022-12-20T17:44:46.293Z,6.72
2022-12-20T17:47:12.995Z,3.47
2022-12-20T17:49:39.493Z,6.25
2022-12-20T17:52:06.052Z,3.92
2022-12-20T17:54:39.551Z,6.07
2022-12-20T17:57:12.471Z,6.05
2022-12-20T17:59:39.056Z,6.53
2022-12-20T18:02:19.899Z,6.20
2022-12-20T18:04:47.177Z,7.25
2022-12-20T18:07:13.757Z,7.53
2022-12-20T18:09:40.317Z,7.65
2022-12-20T18:12:06.918Z,8.18
2022-12-20T18:14:33.351Z,7.50
2022-12-20T18:16:59.932Z,9.65
2022-12-20T18:19:26.556Z,11.07
2022-12-20T18:21:53.018Z,10.02
2022-12-20T18:24:21.416Z,8.52
2022-12-20T18:26:47.910Z,6.05
2022-12-20T18:29:14.614Z,4.57
2022-12-20T18:31:41.185Z,4.18
2022-12-20T18:34:07.757Z,2.03
2022-12-20T18:36:36.766Z,6.18
2022-12-20T18:39:08.107Z,5.60
2022-12-20T18:41:35.230Z,5.90
2022-12-20T18:44:06.703Z,4.70
2022-12-20T18:46:33.755Z,6.35
2022-12-20T18:49:01.472Z,7.97
2022-12-20T18:51:30.779Z,7.20
2022-12-20T18:53:59.432Z,8.68
2022-12-20T18:56:31.120Z,8.13
2022-12-20T18:59:04.629Z,8.80
2022-12-20T19:01:37.469Z,9.45
2022-12-20T19:04:06.472Z,2.97
2022-12-20T19:06:33.260Z,7.45
2022-12-20T19:09:01.011Z,6.95
2022-12-20T19:11:28.110Z,7.85
2022-12-20T19:13:55.889Z,7.55
2022-12-20T19:16:25.829Z,6.70
2022-12-20T19:18:52.379Z,6.65
2022-12-20T19:21:21.095Z,5.70
2022-12-20T19:23:49.945Z,6.95
2022-12-20T19:26:18.064Z,7.22
2022-12-20T19:28:44.563Z,1.83
2022-12-20T19:31:32.662Z,5.43
2022-12-20T19:34:02.201Z,7.93
2022-12-20T19:36:31.887Z,6.97
2022-12-20T19:39:00.118Z,3.42
2022-12-20T19:41:29.954Z,7.95
2022-12-20T19:43:57.225Z,7.38
2022-12-20T19:46:29.443Z,5.13
2022-12-20T19:48:57.664Z,7.45
2022-12-20T19:51:25.815Z,5.57
2022-12-20T19:53:53.632Z,6.80
2022-12-20T19:56:27.132Z,9.75
2022-12-20T19:58:55.379Z,10.75
2022-12-20T20:01:25.718Z,1.95
2022-12-20T20:03:53.963Z,7.13
2022-12-20T20:06:21.093Z,3.33
2022-12-20T20:08:49.658Z,8.05
2022-12-20T20:11:18.880Z,2.70
2022-12-20T20:13:45.512Z,5.20
2022-12-20T20:16:15.466Z,4.63
2022-12-20T20:18:47.152Z,9.35
2022-12-20T20:21:17.821Z,6.20
2022-12-20T20:23:44.431Z,5.47
2022-12-20T20:26:14.938Z,5.03
2022-12-20T20:28:44.824Z,6.25
2022-12-20T20:31:13.574Z,6.97
2022-12-20T20:33:40.350Z,5.85
2022-12-20T20:36:07.379Z,5.88
2022-12-20T20:38:34.895Z,10.45
2022-12-20T20:41:01.838Z,7.00
2022-12-20T20:43:29.706Z,9.10
2022-12-20T20:45:56.846Z,9.50
2022-12-20T20:48:23.471Z,11.20
2022-12-20T20:50:49.964Z,10.77
2022-12-20T20:53:16.404Z,6.60
2022-12-20T20:55:43.906Z,8.50
2022-12-20T20:58:10.421Z,11.35
2022-12-20T21:00:37.052Z,9.55
2022-12-20T21:03:03.914Z,10.82
2022-12-20T21:08:17.451Z,8.25
2022-12-20T21:10:44.155Z,11.27
2022-12-20T21:13:11.939Z,10.45
2022-12-20T21:15:40.740Z,14.40
2022-12-20T21:18:07.274Z,12.40
2022-12-20T21:20:33.987Z,12.43
2022-12-20T21:23:01.456Z,12.35
2022-12-20T21:25:28.317Z,13.18
2022-12-20T21:27:56.281Z,12.65
2022-12-20T21:30:23.551Z,12.75
2022-12-20T21:32:51.337Z,15.27
2022-12-20T21:35:17.816Z,14.93
2022-12-20T21:37:44.308Z,16.27
2022-12-20T21:40:11.224Z,23.33
2022-12-20T21:42:37.725Z,30.80
2022-12-20T21:45:04.800Z,16.27
2022-12-20T21:47:31.311Z,30.92
2022-12-20T21:49:57.756Z,18.65
2022-12-20T21:52:24.283Z,22.30
2022-12-20T21:54:50.758Z,16.02
2022-12-20T21:57:17.212Z,12.05
2022-12-20T21:59:43.658Z,13.07
2022-12-20T22:02:12.610Z,5.47
2022-12-20T22:04:39.488Z,10.95
2022-12-20T22:07:05.991Z,8.15
2022-12-20T22:09:32.458Z,8.45
2022-12-20T22:11:59.064Z,3.63
2022-12-20T22:14:25.973Z,8.40
2022-12-20T22:16:54.680Z,4.72
2022-12-20T22:19:21.327Z,12.75
2022-12-20T22:21:53.699Z,13.80
2022-12-20T22:24:24.160Z,4.55
2022-12-20T22:26:50.734Z,10.88
2022-12-20T22:29:17.246Z,12.77
2022-12-20T22:31:43.849Z,7.97
2022-12-20T22:34:10.422Z,11.75
2022-12-20T22:36:37.139Z,14.38
2022-12-20T22:39:04.251Z,11.35
2022-12-20T22:41:34.900Z,13.93
2022-12-20T22:44:01.916Z,16.83
2022-12-20T22:46:29.581Z,13.68
2022-12-20T22:48:57.150Z,11.73
2022-12-20T22:51:25.884Z,13.45
2022-12-20T22:53:53.391Z,5.68
2022-12-20T22:56:21.520Z,5.97
2022-12-20T22:58:49.386Z,10.93
2022-12-20T23:01:18.045Z,7.93
2022-12-20T23:03:45.270Z,13.75
2022-12-20T23:06:14.449Z,16.05
2022-12-20T23:08:41.785Z,15.45
2022-12-20T23:11:41.779Z,18.52
2022-12-20T23:14:33.061Z,7.78
2022-12-20T23:17:00.552Z,3.72
2022-12-20T23:19:28.306Z,6.25
2022-12-20T23:22:13.198Z,4.13
2022-12-20T23:24:39.652Z,15.97
2022-12-20T23:27:06.428Z,14.23
2022-12-20T23:29:33.216Z,13.05
2022-12-20T23:31:59.859Z,13.30
2022-12-20T23:34:26.448Z,4.78
2022-12-20T23:36:52.908Z,6.63
2022-12-20T23:39:19.351Z,6.60
2022-12-20T23:41:46.323Z,19.20
2022-12-20T23:44:12.815Z,14.40
2022-12-20T23:46:39.403Z,16.30
2022-12-20T23:49:06.057Z,6.53
2022-12-20T23:51:34.476Z,10.70
2022-12-20T23:54:01.113Z,18.90
2022-12-20T23:56:27.658Z,19.52
2022-12-20T23:58:54.949Z,16.33
